Time;durP1;ratioP1;P1;durP2;ratioP2;P2;SDS_P1;SDS_P2;PMS_P1;PMS_P2;Temp;Humidity;BMP_temperature;BMP_pressure;BME280_temperature;BME280_humidity;BME280_pressure;Samples;Min_cycle;Max_cycle;Signal;HPM_P1;HPM_P2
2022/07/22 00:01:09;;;;;;;4.03;0.85;;;16.70;93.30;;;;;;5021635;28;20128;-75
2022/07/22 00:03:36;;;;;;;1.88;0.68;;;16.70;93.20;;;;;;5054028;28;20435;-75
2022/07/22 00:06:04;;;;;;;2.25;0.70;;;16.80;93.20;;;;;;5035709;28;20049;-75
2022/07/22 00:08:31;;;;;;;1.85;0.75;;;16.80;93.10;;;;;;5037159;28;20143;-75
2022/07/22 00:10:58;;;;;;;2.03;0.70;;;16.90;93.10;;;;;;5033899;28;20041;-75
2022/07/22 00:13:25;;;;;;;1.70;0.60;;;16.90;93.10;;;;;;5052716;28;20083;-75
2022/07/22 00:15:52;;;;;;;1.88;0.60;;;17.00;93.00;;;;;;5053800;28;20052;-75
2022/07/22 00:18:19;;;;;;;3.67;0.57;;;17.00;93.00;;;;;;5036902;28;20040;-75
2022/07/22 00:20:46;;;;;;;1.80;0.50;;;17.00;92.90;;;;;;5037355;28;20083;-75
2022/07/22 00:23:13;;;;;;;2.88;0.63;;;17.10;92.90;;;;;;5053073;28;20060;-74
2022/07/22 00:25:46;;;;;;;2.55;0.70;;;17.10;92.80;;;;;;5025229;28;20486;-76
2022/07/22 00:28:13;;;;;;;3.15;0.90;;;17.10;92.70;;;;;;5055062;28;20060;-75
2022/07/22 00:30:40;;;;;;;1.55;0.60;;;17.10;92.80;;;;;;5020207;28;20041;-76
2022/07/22 00:33:07;;;;;;;2.75;0.85;;;17.10;92.80;;;;;;5035597;28;20106;-74
2022/07/22 00:35:34;;;;;;;3.10;0.55;;;17.10;92.80;;;;;;5036399;28;20468;-75
2022/07/22 00:38:09;;;;;;;2.17;0.70;;;17.10;92.70;;;;;;5028504;28;20045;-74
2022/07/22 00:40:36;;;;;;;1.98;0.50;;;17.10;92.70;;;;;;5036152;28;20412;-75
2022/07/22 00:43:03;;;;;;;3.75;0.80;;;17.10;92.70;;;;;;5034795;28;20041;-75
2022/07/22 00:45:30;;;;;;;2.50;0.80;;;17.10;92.60;;;;;;5052818;28;20390;-75
2022/07/22 00:47:59;;;;;;;1.63;0.70;;;17.10;92.60;;;;;;5067340;28;20124;-76
2022/07/22 00:50:26;;;;;;;2.17;0.73;;;17.10;92.60;;;;;;5056200;28;20045;-75
2022/07/22 00:52:53;;;;;;;3.30;0.70;;;17.10;92.60;;;;;;5054583;28;20371;-75
2022/07/22 00:55:20;;;;;;;1.95;0.60;;;17.10;92.60;;;;;;5031539;28;20041;-76
2022/07/22 00:57:47;;;;;;;2.90;0.60;;;17.10;92.60;;;;;;5036438;28;20044;-79
2022/07/22 01:00:18;;;;;;;2.42;0.75;;;17.10;92.60;;;;;;5076726;28;20040;-76
2022/07/22 01:02:46;;;;;;;2.72;0.80;;;17.10;92.60;;;;;;5046147;28;20500;-75
2022/07/22 01:05:13;;;;;;;3.03;0.60;;;17.10;92.60;;;;;;5055436;28;20036;-75
2022/07/22 01:07:40;;;;;;;2.10;0.60;;;17.10;92.50;;;;;;5083160;28;20060;-75
2022/07/22 01:10:08;;;;;;;2.10;0.98;;;17.20;92.60;;;;;;5055516;28;20130;-76
2022/07/22 01:12:35;;;;;;;1.95;0.60;;;17.10;92.60;;;;;;5054746;28;20054;-76
2022/07/22 01:15:03;;;;;;;3.22;0.80;;;17.20;92.60;;;;;;5040724;28;20044;-76
2022/07/22 01:17:30;;;;;;;1.80;0.50;;;17.20;92.60;;;;;;5055293;28;20531;-76
2022/07/22 01:20:15;;;;;;;4.63;0.80;;;17.20;92.50;;;;;;5022517;28;20036;-76
2022/07/22 01:22:44;;;;;;;5.53;1.00;;;17.20;92.40;;;;;;5052455;28;20072;-74
2022/07/22 01:25:11;;;;;;;3.22;0.93;;;17.10;92.40;;;;;;5036090;28;20040;-79
2022/07/22 01:27:40;;;;;;;2.72;0.52;;;17.10;92.40;;;;;;5023047;28;20459;-75
2022/07/22 01:30:08;;;;;;;4.38;1.00;;;17.10;92.40;;;;;;5021320;28;20459;-79
2022/07/22 01:32:35;;;;;;;2.35;0.80;;;17.10;92.40;;;;;;5019843;28;20072;-78
2022/07/22 01:35:05;;;;;;;1.20;0.50;;;17.10;92.40;;;;;;5050271;28;20076;-79
2022/07/22 01:37:35;;;;;;;2.15;0.70;;;17.10;92.40;;;;;;5061827;28;20398;-79
2022/07/22 01:40:04;;;;;;;2.42;0.70;;;17.10;92.40;;;;;;5068531;28;20102;-78
2022/07/22 01:42:31;;;;;;;1.08;0.50;;;17.10;92.40;;;;;;5035921;28;20073;-79
2022/07/22 01:44:58;;;;;;;3.60;0.65;;;17.10;92.40;;;;;;5037810;28;20057;-79
2022/07/22 01:47:25;;;;;;;3.45;0.98;;;17.10;92.40;;;;;;5052671;28;20764;-79
2022/07/22 01:49:52;;;;;;;3.53;0.80;;;17.10;92.40;;;;;;5030639;28;20079;-80
2022/07/22 01:52:19;;;;;;;3.33;0.80;;;17.10;92.40;;;;;;5039692;28;20492;-79
2022/07/22 01:54:46;;;;;;;2.80;0.70;;;17.10;92.30;;;;;;5052685;28;20056;-79
2022/07/22 01:57:16;;;;;;;1.25;0.57;;;17.00;92.30;;;;;;5056222;28;20702;-80
2022/07/22 01:59:48;;;;;;;4.28;1.10;;;17.00;92.30;;;;;;5036338;28;20090;-79
2022/07/22 02:02:15;;;;;;;5.57;1.10;;;17.00;92.30;;;;;;5035229;28;20049;-79
2022/07/22 02:04:42;;;;;;;3.35;0.80;;;16.90;92.30;;;;;;5055300;28;20049;-79
2022/07/22 02:07:10;;;;;;;2.30;0.80;;;16.90;92.30;;;;;;5025761;28;20056;-78
2022/07/22 02:09:37;;;;;;;3.33;0.80;;;16.90;92.60;;;;;;5035578;28;20041;-79
2022/07/22 02:12:04;;;;;;;2.88;0.70;;;16.90;92.30;;;;;;5068205;28;20094;-79
2022/07/22 02:14:36;;;;;;;2.75;0.82;;;16.90;92.30;;;;;;5026104;28;20063;-79
2022/07/22 02:17:04;;;;;;;3.63;0.90;;;16.90;92.50;;;;;;5021829;28;20056;-79
2022/07/22 02:19:31;;;;;;;3.45;0.70;;;16.90;92.20;;;;;;5005648;28;20541;-78
2022/07/22 02:21:58;;;;;;;2.88;0.70;;;16.90;92.20;;;;;;5037549;28;20045;-78
2022/07/22 02:24:25;;;;;;;4.10;0.95;;;17.00;92.20;;;;;;5053335;28;20042;-80
2022/07/22 02:26:52;;;;;;;4.93;0.80;;;16.90;92.10;;;;;;5045598;28;20485;-80
2022/07/22 02:29:19;;;;;;;2.45;0.70;;;16.90;92.20;;;;;;5035552;28;20090;-81
2022/07/22 02:31:46;;;;;;;1.77;0.60;;;16.90;92.10;;;;;;5029861;28;20133;-79
2022/07/22 02:34:19;;;;;;;3.80;0.90;;;16.90;92.20;;;;;;5025420;28;20072;-80
2022/07/22 02:36:48;;;;;;;4.68;1.20;;;16.90;92.20;;;;;;5025884;28;20098;-80
2022/07/22 02:39:16;;;;;;;2.53;1.15;;;16.90;92.10;;;;;;5028227;28;20381;-79
2022/07/22 02:41:43;;;;;;;2.47;0.70;;;16.80;92.20;;;;;;5037539;28;20040;-80
2022/07/22 02:44:11;;;;;;;1.85;0.90;;;16.90;92.20;;;;;;5038299;28;20044;-81
2022/07/22 02:46:38;;;;;;;2.40;0.73;;;16.80;92.10;;;;;;5054314;28;20044;-79
2022/07/22 02:49:19;;;;;;;2.50;0.95;;;16.80;92.10;;;;;;5005621;28;20498;-80
2022/07/22 02:51:46;;;;;;;2.25;0.95;;;16.70;92.40;;;;;;5032003;28;20054;-80
2022/07/22 02:54:16;;;;;;;2.92;0.85;;;16.80;92.20;;;;;;5021013;28;20065;-80
2022/07/22 02:56:43;;;;;;;3.15;0.90;;;16.70;92.10;;;;;;5011231;28;20045;-80
2022/07/22 02:59:10;;;;;;;2.35;0.70;;;16.70;92.10;;;;;;5013079;28;20048;-80
2022/07/22 03:01:38;;;;;;;2.85;0.80;;;16.70;92.10;;;;;;4995732;28;20049;-79
2022/07/22 03:04:05;;;;;;;3.53;0.95;;;16.70;92.10;;;;;;5031161;28;20262;-80
2022/07/22 03:06:35;;;;;;;2.40;0.60;;;16.70;92.40;;;;;;5009447;28;20072;-79
2022/07/22 03:09:09;;;;;;;1.98;0.50;;;16.70;92.10;;;;;;5022290;28;20521;-79
2022/07/22 03:11:40;;;;;;;2.83;0.80;;;16.70;92.10;;;;;;5015713;28;20050;-78
2022/07/22 03:14:08;;;;;;;1.95;0.98;;;16.80;92.00;;;;;;5013900;28;20297;-80
2022/07/22 03:16:37;;;;;;;2.83;0.60;;;16.80;92.00;;;;;;5031196;28;20050;-80
2022/07/22 03:19:04;;;;;;;2.78;0.65;;;16.80;92.00;;;;;;5014721;28;20049;-79
2022/07/22 03:21:31;;;;;;;1.48;0.65;;;16.80;92.00;;;;;;5014732;28;20081;-79
2022/07/22 03:23:58;;;;;;;5.03;1.00;;;16.80;92.00;;;;;;5006260;28;20061;-80
2022/07/22 03:26:25;;;;;;;3.78;0.63;;;16.80;92.00;;;;;;5011217;28;20489;-79
2022/07/22 03:28:52;;;;;;;2.55;0.70;;;16.80;91.90;;;;;;5003106;28;20505;-79
2022/07/22 03:31:20;;;;;;;1.40;0.73;;;16.80;91.90;;;;;;5012262;28;20501;-80
2022/07/22 03:33:49;;;;;;;2.17;0.75;;;16.80;91.90;;;;;;5011375;28;20104;-79
2022/07/22 03:36:16;;;;;;;2.72;0.50;;;16.90;92.00;;;;;;5011398;28;20056;-79
2022/07/22 03:38:47;;;;;;;2.40;0.60;;;16.90;91.90;;;;;;4999762;28;20120;-79
2022/07/22 03:41:14;;;;;;;1.73;0.60;;;16.90;91.90;;;;;;4982307;28;20056;-80
2022/07/22 03:43:44;;;;;;;1.13;0.52;;;16.90;91.90;;;;;;4987206;28;20041;-79
2022/07/22 03:46:11;;;;;;;2.70;0.77;;;16.90;91.90;;;;;;5014390;28;20045;-78
2022/07/22 03:48:42;;;;;;;1.88;0.60;;;16.90;91.90;;;;;;5023320;28;20501;-79
2022/07/22 03:51:11;;;;;;;3.10;0.73;;;17.00;91.90;;;;;;5023230;28;20056;-79
2022/07/22 03:53:38;;;;;;;2.60;0.75;;;17.00;91.90;;;;;;5049916;28;20048;-79
2022/07/22 03:56:06;;;;;;;2.38;0.70;;;17.00;91.90;;;;;;5060796;28;20061;-79
2022/07/22 03:58:34;;;;;;;3.53;1.05;;;17.00;91.90;;;;;;5002802;28;20064;-79
2022/07/22 04:01:01;;;;;;;2.38;0.80;;;17.00;91.80;;;;;;5032924;28;20139;-79
2022/07/22 04:03:28;;;;;;;1.55;0.68;;;17.00;91.80;;;;;;5033316;28;20041;-79
2022/07/22 04:06:14;;;;;;;3.33;0.80;;;17.00;91.80;;;;;;5037004;28;20091;-79
2022/07/22 04:08:48;;;;;;;3.28;1.00;;;17.00;91.80;;;;;;5053832;28;20083;-79
2022/07/22 04:11:16;;;;;;;3.50;0.70;;;17.00;91.80;;;;;;5021677;28;20528;-79
2022/07/22 04:13:43;;;;;;;2.53;0.88;;;17.00;91.80;;;;;;5027852;28;20049;-80
2022/07/22 04:16:10;;;;;;;2.83;0.70;;;17.00;91.70;;;;;;5037144;28;20087;-80
2022/07/22 04:18:46;;;;;;;2.70;1.20;;;17.00;91.70;;;;;;5041382;28;20045;-79
2022/07/22 04:21:13;;;;;;;2.65;0.90;;;17.00;91.70;;;;;;5010629;28;20416;-79
2022/07/22 04:23:55;;;;;;;2.63;0.63;;;17.00;91.70;;;;;;5036079;28;20055;-79
2022/07/22 04:26:29;;;;;;;2.75;0.90;;;17.00;91.60;;;;;;5052856;28;20037;-80
2022/07/22 04:28:56;;;;;;;2.03;0.85;;;17.10;91.60;;;;;;5017755;28;20505;-79
2022/07/22 04:31:24;;;;;;;2.22;0.60;;;17.10;91.60;;;;;;5049626;28;20053;-80
2022/07/22 04:33:59;;;;;;;2.55;1.00;;;17.10;91.60;;;;;;5038332;28;20570;-79
2022/07/22 04:36:26;;;;;;;2.25;0.80;;;17.10;91.50;;;;;;5035967;28;20052;-80
2022/07/22 04:38:54;;;;;;;2.30;1.05;;;17.10;91.50;;;;;;5040629;28;20083;-79
2022/07/22 04:41:21;;;;;;;2.13;0.77;;;17.10;91.50;;;;;;5037196;28;20041;-80
2022/07/22 04:43:49;;;;;;;2.45;0.70;;;17.10;91.40;;;;;;5036491;28;20500;-80
2022/07/22 04:46:20;;;;;;;2.83;0.95;;;17.10;91.50;;;;;;5024425;28;20041;-79
2022/07/22 04:48:48;;;;;;;1.10;0.70;;;17.00;91.40;;;;;;5068918;28;20132;-80
2022/07/22 04:51:15;;;;;;;1.65;0.82;;;17.00;91.40;;;;;;5048589;28;20143;-80
2022/07/22 04:53:47;;;;;;;3.72;0.80;;;17.00;91.40;;;;;;5017888;28;20083;-79
2022/07/22 04:56:19;;;;;;;2.47;0.50;;;17.00;91.70;;;;;;5017565;28;20157;-80
2022/07/22 04:58:49;;;;;;;2.78;0.70;;;17.00;91.30;;;;;;5037906;28;20479;-80
2022/07/22 05:01:16;;;;;;;3.35;0.55;;;17.00;91.30;;;;;;5053377;28;20056;-79
2022/07/22 05:03:47;;;;;;;2.22;0.60;;;17.00;91.30;;;;;;5021119;28;20128;-75
2022/07/22 05:06:15;;;;;;;2.83;0.70;;;16.90;91.20;;;;;;5042848;28;20051;-75
2022/07/22 05:08:43;;;;;;;4.10;0.50;;;16.90;91.30;;;;;;5037046;28;20532;-76
2022/07/22 05:11:11;;;;;;;1.73;0.47;;;16.90;91.20;;;;;;5032142;28;20527;-76
2022/07/22 05:13:39;;;;;;;1.27;0.50;;;16.90;91.20;;;;;;5019542;28;20136;-80
2022/07/22 05:16:10;;;;;;;1.25;0.45;;;16.90;91.20;;;;;;5021287;28;20401;-80
2022/07/22 05:18:38;;;;;;;2.38;0.50;;;17.00;91.20;;;;;;5046244;28;20048;-79
2022/07/22 05:21:08;;;;;;;2.03;0.88;;;17.00;91.10;;;;;;5039567;28;20045;-79
2022/07/22 05:23:35;;;;;;;1.33;0.50;;;17.00;91.10;;;;;;5040008;28;20063;-79
2022/07/22 05:26:04;;;;;;;1.58;0.43;;;17.00;91.10;;;;;;5025475;28;20045;-79
2022/07/22 05:28:31;;;;;;;2.25;0.60;;;17.10;91.10;;;;;;5034053;28;20050;-80
2022/07/22 05:30:59;;;;;;;1.65;0.40;;;17.10;91.30;;;;;;5002168;28;20053;-79
2022/07/22 05:33:27;;;;;;;1.80;0.45;;;17.10;91.00;;;;;;5070075;28;20155;-79
2022/07/22 05:35:54;;;;;;;4.18;0.80;;;17.20;90.90;;;;;;5017727;28;20041;-80
2022/07/22 05:38:22;;;;;;;1.98;0.40;;;17.20;90.90;;;;;;5036672;28;20411;-80
2022/07/22 05:40:49;;;;;;;1.23;0.20;;;17.20;90.80;;;;;;5024687;28;20049;-80
2022/07/22 05:43:16;;;;;;;1.13;0.60;;;17.20;90.70;;;;;;5039319;28;20083;-80
2022/07/22 05:45:46;;;;;;;3.10;0.50;;;17.30;91.00;;;;;;5053696;28;20083;-80
2022/07/22 05:48:13;;;;;;;1.45;0.30;;;17.30;90.70;;;;;;5015961;28;20115;-79
2022/07/22 05:50:40;;;;;;;3.33;0.45;;;17.40;90.70;;;;;;5016348;28;20042;-80
2022/07/22 05:53:07;;;;;;;1.90;0.50;;;17.40;90.60;;;;;;5015889;28;20060;-79
2022/07/22 05:55:34;;;;;;;1.45;0.40;;;17.50;90.60;;;;;;5054579;28;20052;-79
2022/07/22 05:58:02;;;;;;;3.38;0.50;;;17.50;90.60;;;;;;5022519;28;20068;-79
2022/07/22 06:00:29;;;;;;;1.67;0.38;;;17.50;90.80;;;;;;5032394;28;20033;-79
2022/07/22 06:02:57;;;;;;;1.55;0.30;;;17.60;90.40;;;;;;5009701;28;20053;-80
2022/07/22 06:05:24;;;;;;;1.40;0.40;;;17.60;90.40;;;;;;5032567;28;20048;-79
2022/07/22 06:08:10;;;;;;;2.28;0.50;;;17.60;90.30;;;;;;5015806;28;20042;-79
2022/07/22 06:10:49;;;;;;;1.25;0.30;;;17.70;90.30;;;;;;5000074;28;20040;-80
2022/07/22 06:13:17;;;;;;;0.82;0.30;;;17.70;90.20;;;;;;5030835;28;20057;-80
2022/07/22 06:15:44;;;;;;;1.63;0.47;;;17.80;90.10;;;;;;5016015;28;20053;-80
2022/07/22 06:18:12;;;;;;;2.47;0.40;;;17.80;90.10;;;;;;5004814;28;20042;-79
2022/07/22 06:20:42;;;;;;;1.58;0.52;;;17.90;90.10;;;;;;5027005;28;20049;-79
2022/07/22 06:23:09;;;;;;;1.27;0.40;;;17.90;90.00;;;;;;5014160;28;20049;-80
2022/07/22 06:25:36;;;;;;;1.27;0.40;;;17.90;89.90;;;;;;5015708;28;20041;-79
2022/07/22 06:28:23;;;;;;;1.55;0.20;;;17.90;89.80;;;;;;5018496;28;20473;-80
2022/07/22 06:30:50;;;;;;;3.40;0.40;;;17.90;89.50;;;;;;5032317;28;20477;-80
2022/07/22 06:33:19;;;;;;;2.40;0.50;;;17.90;89.40;;;;;;5013448;28;20046;-80
2022/07/22 06:35:46;;;;;;;0.70;0.30;;;17.90;89.20;;;;;;4997873;28;20434;-79
2022/07/22 06:38:15;;;;;;;2.38;0.40;;;17.90;89.00;;;;;;4999530;28;20061;-80
2022/07/22 06:41:13;;;;;;;1.48;0.45;;;18.00;89.00;;;;;;5032691;28;20172;-80
2022/07/22 06:43:55;;;;;;;1.92;0.30;;;18.00;88.90;;;;;;5007949;28;20520;-80
2022/07/22 06:46:44;;;;;;;0.88;0.50;;;18.10;88.80;;;;;;5017887;28;20041;-80
2022/07/22 06:49:11;;;;;;;1.05;0.20;;;18.10;88.70;;;;;;5007130;28;20144;-80
2022/07/22 06:51:40;;;;;;;2.05;0.52;;;18.10;88.40;;;;;;5064694;28;20135;-80
2022/07/22 06:54:11;;;;;;;2.38;0.30;;;18.10;88.40;;;;;;5031017;28;20057;-80
2022/07/22 06:56:39;;;;;;;1.42;0.30;;;18.20;88.40;;;;;;5034266;28;20045;-79
2022/07/22 06:59:10;;;;;;;1.80;0.30;;;18.30;88.30;;;;;;5014507;28;20073;-80
2022/07/22 07:01:37;;;;;;;1.40;0.50;;;18.30;88.10;;;;;;5031302;28;20041;-80
2022/07/22 07:04:04;;;;;;;2.47;0.30;;;18.40;87.90;;;;;;5018358;28;20119;-80
2022/07/22 07:06:32;;;;;;;1.42;0.38;;;18.50;87.80;;;;;;5063189;28;20067;-80
2022/07/22 07:09:04;;;;;;;2.33;0.30;;;18.60;88.10;;;;;;5034907;28;20374;-80
2022/07/22 07:11:34;;;;;;;2.42;0.35;;;18.60;87.20;;;;;;5051900;28;20102;-81
2022/07/22 07:14:06;;;;;;;2.92;0.30;;;18.60;87.00;;;;;;5034775;28;20041;-79
2022/07/22 07:16:33;;;;;;;0.73;0.22;;;18.70;86.80;;;;;;5034657;28;20049;-82
2022/07/22 07:19:01;;;;;;;0.75;0.30;;;18.80;86.60;;;;;;5041098;28;20041;-82
2022/07/22 07:21:29;;;;;;;1.13;0.28;;;18.90;86.40;;;;;;5010889;28;20037;-82
2022/07/22 07:23:56;;;;;;;3.03;0.30;;;18.90;86.20;;;;;;5034372;28;20041;-82
2022/07/22 07:26:25;;;;;;;2.28;0.30;;;19.00;85.90;;;;;;5035192;28;20041;-81
2022/07/22 07:28:53;;;;;;;3.53;0.43;;;19.10;85.70;;;;;;5034840;28;20049;-81
2022/07/22 07:31:31;;;;;;;2.25;0.50;;;19.10;85.70;;;;;;5052917;28;20041;-81
2022/07/22 07:34:03;;;;;;;1.38;0.40;;;19.10;85.50;;;;;;5051342;28;20049;-81
2022/07/22 07:36:30;;;;;;;0.98;0.40;;;19.20;85.50;;;;;;5037005;28;20545;-81
2022/07/22 07:38:57;;;;;;;2.08;0.40;;;19.20;85.40;;;;;;5043146;28;20037;-81
2022/07/22 07:41:26;;;;;;;2.97;0.22;;;19.30;85.30;;;;;;5016972;28;20095;-82
2022/07/22 07:43:53;;;;;;;0.63;0.30;;;19.30;85.00;;;;;;5038417;28;20033;-82
2022/07/22 07:46:20;;;;;;;2.40;0.47;;;19.20;84.80;;;;;;5006289;28;20041;-82
2022/07/22 07:48:48;;;;;;;1.48;0.60;;;19.20;85.00;;;;;;5036155;28;20056;-81
2022/07/22 07:51:16;;;;;;;1.98;0.30;;;19.20;85.10;;;;;;5052638;28;20555;-80
2022/07/22 07:53:43;;;;;;;1.50;0.40;;;19.20;85.10;;;;;;5032409;28;20075;-81
2022/07/22 07:56:12;;;;;;;1.25;0.22;;;19.20;85.10;;;;;;5038612;28;20072;-81
2022/07/22 07:58:40;;;;;;;1.52;0.32;;;19.20;85.00;;;;;;5037720;28;20381;-80
2022/07/22 08:01:29;;;;;;;1.10;0.40;;;19.20;85.10;;;;;;5042537;28;20402;-81
2022/07/22 08:04:17;;;;;;;1.80;0.30;;;19.10;84.90;;;;;;5051322;28;20041;-81
2022/07/22 08:07:02;;;;;;;1.35;0.30;;;19.10;85.00;;;;;;5040049;28;20091;-82
2022/07/22 08:09:29;;;;;;;1.75;0.32;;;19.00;84.80;;;;;;5042952;28;20135;-81
2022/07/22 08:12:07;;;;;;;1.55;0.30;;;19.00;84.60;;;;;;5036569;28;20049;-81
2022/07/22 08:14:55;;;;;;;1.20;0.40;;;19.10;84.50;;;;;;5048468;28;20048;-81
2022/07/22 08:17:25;;;;;;;1.08;0.38;;;19.20;84.30;;;;;;5070658;28;20049;-81
2022/07/22 08:19:52;;;;;;;1.27;0.20;;;19.30;84.00;;;;;;5054190;28;20041;-82
2022/07/22 08:22:19;;;;;;;0.70;0.20;;;19.40;83.80;;;;;;5021657;28;20060;-82
2022/07/22 08:24:48;;;;;;;1.20;0.30;;;19.40;83.50;;;;;;5043154;28;20136;-82
2022/07/22 08:27:18;;;;;;;0.90;0.30;;;19.40;83.50;;;;;;5054098;28;20079;-81
2022/07/22 08:29:45;;;;;;;1.35;0.40;;;19.60;83.20;;;;;;5037289;28;20489;-81
2022/07/22 08:32:12;;;;;;;1.30;0.40;;;19.70;82.90;;;;;;5021091;28;20060;-82
2022/07/22 08:34:40;;;;;;;1.10;0.40;;;19.80;82.70;;;;;;5021167;28;20037;-82
2022/07/22 08:37:08;;;;;;;1.08;0.30;;;20.00;82.40;;;;;;5054341;28;20500;-81
2022/07/22 08:39:35;;;;;;;0.85;0.32;;;20.10;82.10;;;;;;5053512;28;20040;-81
2022/07/22 08:42:02;;;;;;;1.60;0.40;;;20.10;81.90;;;;;;5021416;28;20037;-80
2022/07/22 08:44:33;;;;;;;1.67;0.45;;;20.20;81.60;;;;;;5020127;28;20041;-81
2022/07/22 08:47:01;;;;;;;2.38;0.30;;;20.30;81.60;;;;;;5054530;28;20060;-82
2022/07/22 08:50:09;;;;;;;1.80;0.40;;;20.40;81.30;;;;;;5039457;28;20071;-82
2022/07/22 08:52:51;;;;;;;1.10;0.30;;;20.60;81.00;;;;;;5032886;28;20378;-79
2022/07/22 08:55:18;;;;;;;1.27;0.30;;;20.70;80.70;;;;;;5033532;28;20068;-81
2022/07/22 08:57:49;;;;;;;2.03;0.40;;;20.80;80.40;;;;;;5032023;28;20042;-81
2022/07/22 09:00:21;;;;;;;1.65;0.50;;;20.90;80.20;;;;;;5016610;28;20050;-81
2022/07/22 09:02:50;;;;;;;1.75;0.30;;;21.00;80.20;;;;;;5033283;28;20076;-81
2022/07/22 09:05:18;;;;;;;0.82;0.50;;;21.10;80.10;;;;;;5031698;28;20163;-81
2022/07/22 09:08:06;;;;;;;1.42;0.35;;;21.00;80.00;;;;;;5020000;28;20033;-81
2022/07/22 09:10:57;;;;;;;1.27;0.50;;;20.80;80.30;;;;;;5033285;28;20560;-81
2022/07/22 09:13:51;;;;;;;1.02;0.40;;;20.60;80.40;;;;;;5008179;28;20076;-81
2022/07/22 09:16:43;;;;;;;1.15;0.30;;;20.50;80.60;;;;;;5031649;28;20049;-80
2022/07/22 09:19:42;;;;;;;1.83;0.40;;;20.30;80.80;;;;;;5020765;28;20045;-80
2022/07/22 09:22:46;;;;;;;1.42;0.38;;;20.20;81.00;;;;;;5035092;28;20405;-81
2022/07/22 09:25:23;;;;;;;1.15;0.30;;;20.20;80.80;;;;;;5032778;28;20046;-81
2022/07/22 09:28:23;;;;;;;1.17;0.50;;;20.20;80.80;;;;;;4988722;28;20042;-81
2022/07/22 09:31:27;;;;;;;1.08;0.40;;;20.20;80.80;;;;;;5021613;28;20079;-81
2022/07/22 09:34:35;;;;;;;0.90;0.43;;;20.40;80.30;;;;;;4966186;28;20061;-81
2022/07/22 09:37:14;;;;;;;1.67;0.28;;;20.60;79.90;;;;;;4953571;28;20058;-82
2022/07/22 09:39:42;;;;;;;2.08;0.40;;;20.70;79.50;;;;;;4992864;28;20049;-81
2022/07/22 09:42:12;;;;;;;1.27;0.50;;;20.80;78.60;;;;;;5016395;28;20077;-81
2022/07/22 09:44:39;;;;;;;1.80;0.30;;;20.80;78.40;;;;;;5017775;28;20119;-84
2022/07/22 09:47:29;;;;;;;1.20;0.47;;;20.90;78.30;;;;;;5034681;28;20144;-82
2022/07/22 09:50:34;;;;;;;0.90;0.40;;;21.10;77.80;;;;;;5046589;28;20053;-83
2022/07/22 09:53:29;;;;;;;0.80;0.35;;;21.20;77.70;;;;;;5002358;28;20052;-84
2022/07/22 09:56:06;;;;;;;1.10;0.38;;;21.30;77.20;;;;;;5053394;28;20048;-83
2022/07/22 09:58:34;;;;;;;2.08;0.47;;;21.50;77.00;;;;;;5016936;28;20056;-82
2022/07/22 10:01:07;;;;;;;2.33;0.68;;;21.60;76.20;;;;;;5045179;28;20041;-82
2022/07/22 10:03:36;;;;;;;1.23;0.30;;;21.70;76.20;;;;;;5036204;28;20135;-80
2022/07/22 10:06:06;;;;;;;0.65;0.40;;;21.70;75.80;;;;;;5051695;28;20041;-79
2022/07/22 10:08:37;;;;;;;1.38;0.40;;;21.70;75.30;;;;;;5040383;28;20853;-80
2022/07/22 10:11:06;;;;;;;1.50;0.35;;;21.70;74.60;;;;;;5032067;28;20056;-81
2022/07/22 10:13:37;;;;;;;0.57;0.20;;;21.70;74.70;;;;;;5031847;28;20050;-80
2022/07/22 10:16:06;;;;;;;1.65;0.50;;;21.70;74.40;;;;;;5061580;28;20045;-80
2022/07/22 10:18:34;;;;;;;1.85;0.45;;;21.70;74.10;;;;;;5026931;28;20477;-80
2022/07/22 10:21:08;;;;;;;0.63;0.30;;;21.70;73.90;;;;;;5035874;28;20501;-80
2022/07/22 10:23:35;;;;;;;0.98;0.22;;;21.80;73.70;;;;;;5049253;28;20115;-80
2022/07/22 10:26:04;;;;;;;2.20;0.40;;;21.90;73.70;;;;;;5048939;28;20178;-80
2022/07/22 10:28:34;;;;;;;0.88;0.30;;;21.90;73.50;;;;;;5035802;28;20127;-80
2022/07/22 10:31:27;;;;;;;0.85;0.40;;;22.10;73.30;;;;;;5068473;28;20121;-79
2022/07/22 10:34:03;;;;;;;0.95;0.28;;;22.20;72.70;;;;;;5049054;28;20049;-80
2022/07/22 10:36:31;;;;;;;1.85;0.38;;;22.30;72.70;;;;;;5027438;28;20488;-80
2022/07/22 10:39:10;;;;;;;0.95;0.25;;;22.40;72.70;;;;;;5035022;28;20037;-80
2022/07/22 10:41:40;;;;;;;0.90;0.20;;;22.60;72.20;;;;;;5032342;28;20090;-80
2022/07/22 10:44:08;;;;;;;1.17;0.20;;;22.70;71.80;;;;;;5052245;28;20060;-81
2022/07/22 10:46:49;;;;;;;1.00;0.20;;;22.70;71.70;;;;;;5052997;28;20033;-80
2022/07/22 10:49:20;;;;;;;1.17;0.30;;;22.90;71.30;;;;;;5047011;28;20095;-80
2022/07/22 10:52:06;;;;;;;0.68;0.20;;;22.90;71.00;;;;;;5030612;28;20045;-81
2022/07/22 10:55:14;;;;;;;1.05;0.30;;;22.80;70.70;;;;;;5046490;28;20512;-81
2022/07/22 10:57:41;;;;;;;2.22;0.57;;;22.80;70.80;;;;;;5022379;28;20457;-80
2022/07/22 11:00:09;;;;;;;1.25;0.20;;;22.80;70.60;;;;;;5023215;28;20126;-79
2022/07/22 11:02:38;;;;;;;0.77;0.47;;;22.80;70.50;;;;;;5042231;28;20109;-79
2022/07/22 11:05:06;;;;;;;0.52;0.30;;;22.90;70.20;;;;;;5032860;28;20489;-82
2022/07/22 11:07:46;;;;;;;1.98;0.32;;;22.90;70.20;;;;;;5029375;28;20038;-80
2022/07/22 11:10:19;;;;;;;0.43;0.28;;;23.10;69.60;;;;;;5030037;28;20446;-83
2022/07/22 11:12:48;;;;;;;0.70;0.28;;;23.20;69.50;;;;;;5031580;28;20072;-81
2022/07/22 11:15:16;;;;;;;1.10;0.30;;;23.40;68.90;;;;;;5036892;28;20140;-79
2022/07/22 11:17:44;;;;;;;0.70;0.30;;;23.60;68.80;;;;;;5020295;28;20493;-80
2022/07/22 11:20:13;;;;;;;0.77;0.28;;;23.60;68.50;;;;;;4991603;28;20103;-78
2022/07/22 11:22:40;;;;;;;0.73;0.30;;;23.70;68.20;;;;;;5036014;28;20448;-78
2022/07/22 11:25:09;;;;;;;1.63;0.43;;;23.80;68.10;;;;;;5016044;28;20056;-79
2022/07/22 11:27:36;;;;;;;1.10;0.20;;;23.80;67.70;;;;;;5031359;28;20128;-79
2022/07/22 11:30:06;;;;;;;0.88;0.38;;;23.90;67.90;;;;;;5031516;28;20044;-80
2022/07/22 11:32:47;;;;;;;0.68;0.30;;;24.00;67.40;;;;;;5031551;28;20136;-81
2022/07/22 11:35:14;;;;;;;1.75;0.20;;;24.10;66.90;;;;;;5021337;28;20493;-81
2022/07/22 11:37:55;;;;;;;0.55;0.20;;;24.10;66.90;;;;;;5014495;28;20050;-80
2022/07/22 11:40:22;;;;;;;0.68;0.30;;;24.00;66.50;;;;;;5056163;28;20041;-80
2022/07/22 11:43:03;;;;;;;1.58;0.50;;;24.00;66.20;;;;;;5018643;28;20045;-80
2022/07/22 11:45:30;;;;;;;0.85;0.25;;;23.90;65.40;;;;;;5012286;28;20152;-83
2022/07/22 11:47:57;;;;;;;0.60;0.20;;;23.70;66.10;;;;;;5016376;28;20042;-81
2022/07/22 11:50:31;;;;;;;0.75;0.30;;;23.50;66.30;;;;;;5042115;28;20053;-82
2022/07/22 11:53:02;;;;;;;0.47;0.20;;;23.40;66.50;;;;;;5014844;28;20064;-81
2022/07/22 11:55:29;;;;;;;1.05;0.55;;;23.20;67.50;;;;;;5027950;28;20041;-81
2022/07/22 11:57:56;;;;;;;1.00;0.30;;;23.10;67.10;;;;;;4991846;28;20125;-80
2022/07/22 12:00:23;;;;;;;0.55;0.28;;;23.00;67.30;;;;;;4998074;28;20046;-80
2022/07/22 12:02:50;;;;;;;1.80;0.38;;;23.00;67.20;;;;;;4997296;28;20057;-77
2022/07/22 12:05:18;;;;;;;0.88;0.20;;;22.90;67.00;;;;;;5031366;28;20125;-77
2022/07/22 12:08:01;;;;;;;1.67;0.40;;;22.90;67.10;;;;;;5033709;28;20091;-81
2022/07/22 12:10:31;;;;;;;0.55;0.20;;;22.80;67.00;;;;;;4997892;28;20151;-84
2022/07/22 12:12:58;;;;;;;1.02;0.30;;;22.70;67.10;;;;;;5014090;28;20057;-77
2022/07/22 12:15:26;;;;;;;1.50;0.28;;;22.70;66.90;;;;;;5013534;28;20049;-78
2022/07/22 12:18:21;;;;;;;1.05;0.30;;;22.60;67.00;;;;;;5016856;28;20051;-79
2022/07/22 12:20:50;;;;;;;1.75;0.32;;;22.70;66.60;;;;;;5023945;28;20068;-78
2022/07/22 12:23:24;;;;;;;1.70;0.43;;;22.60;65.90;;;;;;5014005;28;20405;-78
2022/07/22 12:25:56;;;;;;;1.65;0.40;;;22.60;66.20;;;;;;5013920;28;20042;-77
2022/07/22 12:28:25;;;;;;;0.80;0.30;;;22.80;65.80;;;;;;5032605;28;20045;-76
2022/07/22 12:30:56;;;;;;;1.15;0.20;;;22.90;65.80;;;;;;5017226;28;20069;-77
2022/07/22 12:33:23;;;;;;;1.93;0.53;;;23.80;64.90;;;;;;5016403;28;20045;-77
2022/07/22 12:36:06;;;;;;;2.45;0.35;;;24.80;63.30;;;;;;5036086;28;20107;-77
2022/07/22 12:38:33;;;;;;;2.28;0.30;;;25.80;61.30;;;;;;5027220;28;20451;-77
2022/07/22 12:41:21;;;;;;;1.90;0.43;;;26.50;59.80;;;;;;5013886;28;20065;-77
2022/07/22 12:43:49;;;;;;;9.50;1.42;;;27.20;58.90;;;;;;5016818;28;20043;-76
2022/07/22 12:46:16;;;;;;;3.67;0.85;;;27.20;59.00;;;;;;5013986;28;20076;-78
2022/07/22 12:48:54;;;;;;;2.75;0.68;;;27.00;59.10;;;;;;5032726;28;20037;-77
2022/07/22 12:51:23;;;;;;;7.07;1.50;;;26.80;59.40;;;;;;5051763;28;20480;-77
2022/07/22 12:53:51;;;;;;;3.30;0.95;;;26.30;59.90;;;;;;5039811;28;20039;-77
2022/07/22 12:56:20;;;;;;;3.70;0.60;;;26.40;60.30;;;;;;5040552;28;20071;-77
2022/07/22 12:58:48;;;;;;;4.45;0.63;;;26.60;59.70;;;;;;5055882;28;21576;-77
2022/07/22 13:01:16;;;;;;;1.45;0.30;;;26.80;59.50;;;;;;5032179;28;20067;-77
2022/07/22 13:03:48;;;;;;;1.35;0.50;;;27.00;59.20;;;;;;5055992;28;20031;-78
2022/07/22 13:06:16;;;;;;;5.63;2.10;;;27.00;58.60;;;;;;5056705;28;20045;-77
2022/07/22 13:08:43;;;;;;;1.50;0.60;;;26.90;59.00;;;;;;5023493;28;20040;-78